sensor_id;sensor_type;location;lat;lon;timestamp;P1;durP1;ratioP1;P2;durP2;ratioP2
70157;SDS011;57524;48.312;7.938;2022-07-29T00:01:09;9.35;;;5.70;;
70157;SDS011;57524;48.312;7.938;2022-07-29T00:03:40;7.63;;;5.30;;
70157;SDS011;57524;48.312;7.938;2022-07-29T00:06:07;7.55;;;5.10;;
70157;SDS011;57524;48.312;7.938;2022-07-29T00:08:33;7.72;;;5.25;;
70157;SDS011;57524;48.312;7.938;2022-07-29T00:11:01;6.60;;;4.97;;
70157;SDS011;57524;48.312;7.938;2022-07-29T00:13:28;8.02;;;5.30;;
70157;SDS011;57524;48.312;7.938;2022-07-29T00:15:54;7.07;;;5.30;;
70157;SDS011;57524;48.312;7.938;2022-07-29T00:18:22;7.63;;;5.35;;
70157;SDS011;57524;48.312;7.938;2022-07-29T00:20:49;8.05;;;5.10;;
70157;SDS011;57524;48.312;7.938;2022-07-29T00:23:16;7.18;;;5.68;;
70157;SDS011;57524;48.312;7.938;2022-07-29T00:25:42;6.60;;;5.20;;
70157;SDS011;57524;48.312;7.938;2022-07-29T00:28:09;7.30;;;5.38;;
70157;SDS011;57524;48.312;7.938;2022-07-29T00:30:35;6.93;;;5.22;;
70157;SDS011;57524;48.312;7.938;2022-07-29T00:33:02;7.53;;;4.82;;
70157;SDS011;57524;48.312;7.938;2022-07-29T00:35:30;6.65;;;4.55;;
70157;SDS011;57524;48.312;7.938;2022-07-29T00:38:13;7.47;;;5.13;;
70157;SDS011;57524;48.312;7.938;2022-07-29T00:40:41;6.80;;;4.88;;
70157;SDS011;57524;48.312;7.938;2022-07-29T00:43:09;8.43;;;5.78;;
70157;SDS011;57524;48.312;7.938;2022-07-29T00:45:35;7.45;;;5.25;;
70157;SDS011;57524;48.312;7.938;2022-07-29T00:48:02;7.38;;;5.43;;
70157;SDS011;57524;48.312;7.938;2022-07-29T00:50:32;7.93;;;5.30;;
70157;SDS011;57524;48.312;7.938;2022-07-29T00:52:59;8.07;;;5.00;;
70157;SDS011;57524;48.312;7.938;2022-07-29T00:55:26;7.15;;;5.10;;
70157;SDS011;57524;48.312;7.938;2022-07-29T00:57:53;7.28;;;5.60;;
70157;SDS011;57524;48.312;7.938;2022-07-29T01:00:21;8.35;;;5.25;;
70157;SDS011;57524;48.312;7.938;2022-07-29T01:02:49;8.02;;;5.30;;
70157;SDS011;57524;48.312;7.938;2022-07-29T01:05:16;6.47;;;5.07;;
70157;SDS011;57524;48.312;7.938;2022-07-29T01:07:47;7.70;;;5.25;;
70157;SDS011;57524;48.312;7.938;2022-07-29T01:10:17;6.70;;;5.13;;
70157;SDS011;57524;48.312;7.938;2022-07-29T01:12:46;7.60;;;5.18;;
70157;SDS011;57524;48.312;7.938;2022-07-29T01:15:15;7.65;;;4.93;;
70157;SDS011;57524;48.312;7.938;2022-07-29T01:17:43;8.30;;;5.65;;
70157;SDS011;57524;48.312;7.938;2022-07-29T01:20:13;8.07;;;5.45;;
70157;SDS011;57524;48.312;7.938;2022-07-29T01:26:00;8.23;;;5.70;;
70157;SDS011;57524;48.312;7.938;2022-07-29T01:28:41;7.18;;;5.25;;
70157;SDS011;57524;48.312;7.938;2022-07-29T01:31:22;8.05;;;5.25;;
70157;SDS011;57524;48.312;7.938;2022-07-29T01:33:55;7.38;;;5.40;;
70157;SDS011;57524;48.312;7.938;2022-07-29T01:36:27;8.10;;;5.18;;
70157;SDS011;57524;48.312;7.938;2022-07-29T01:39:00;7.75;;;5.60;;
70157;SDS011;57524;48.312;7.938;2022-07-29T01:41:32;8.15;;;5.30;;
70157;SDS011;57524;48.312;7.938;2022-07-29T01:44:06;8.05;;;5.20;;
70157;SDS011;57524;48.312;7.938;2022-07-29T01:46:40;7.78;;;5.60;;
70157;SDS011;57524;48.312;7.938;2022-07-29T01:49:13;7.55;;;5.07;;
70157;SDS011;57524;48.312;7.938;2022-07-29T01:51:43;8.02;;;5.47;;
70157;SDS011;57524;48.312;7.938;2022-07-29T01:54:14;8.23;;;4.90;;
70157;SDS011;57524;48.312;7.938;2022-07-29T01:56:47;8.32;;;5.13;;
70157;SDS011;57524;48.312;7.938;2022-07-29T01:59:17;7.35;;;5.22;;
70157;SDS011;57524;48.312;7.938;2022-07-29T02:01:44;7.22;;;5.50;;
70157;SDS011;57524;48.312;7.938;2022-07-29T02:04:13;8.13;;;5.25;;
70157;SDS011;57524;48.312;7.938;2022-07-29T02:06:41;7.70;;;5.43;;
70157;SDS011;57524;48.312;7.938;2022-07-29T02:09:09;6.97;;;5.45;;
70157;SDS011;57524;48.312;7.938;2022-07-29T02:11:38;8.50;;;5.70;;
70157;SDS011;57524;48.312;7.938;2022-07-29T02:14:06;7.97;;;5.10;;
70157;SDS011;57524;48.312;7.938;2022-07-29T02:16:36;8.38;;;5.35;;
70157;SDS011;57524;48.312;7.938;2022-07-29T02:19:06;7.95;;;5.30;;
70157;SDS011;57524;48.312;7.938;2022-07-29T02:21:36;8.10;;;5.43;;
70157;SDS011;57524;48.312;7.938;2022-07-29T02:24:03;8.18;;;5.43;;
70157;SDS011;57524;48.312;7.938;2022-07-29T02:26:31;7.88;;;5.18;;
70157;SDS011;57524;48.312;7.938;2022-07-29T02:28:59;9.10;;;5.65;;
70157;SDS011;57524;48.312;7.938;2022-07-29T02:31:28;7.40;;;5.68;;
70157;SDS011;57524;48.312;7.938;2022-07-29T02:33:59;8.60;;;5.50;;
70157;SDS011;57524;48.312;7.938;2022-07-29T02:36:28;7.70;;;5.85;;
70157;SDS011;57524;48.312;7.938;2022-07-29T02:38:57;7.20;;;5.63;;
70157;SDS011;57524;48.312;7.938;2022-07-29T02:41:28;8.80;;;5.63;;
70157;SDS011;57524;48.312;7.938;2022-07-29T02:43:58;7.72;;;5.68;;
70157;SDS011;57524;48.312;7.938;2022-07-29T02:46:30;7.95;;;5.50;;
70157;SDS011;57524;48.312;7.938;2022-07-29T02:49:04;7.97;;;5.35;;
70157;SDS011;57524;48.312;7.938;2022-07-29T02:51:40;8.55;;;5.47;;
70157;SDS011;57524;48.312;7.938;2022-07-29T02:54:09;9.95;;;5.60;;
70157;SDS011;57524;48.312;7.938;2022-07-29T02:56:40;7.72;;;5.50;;
70157;SDS011;57524;48.312;7.938;2022-07-29T02:59:09;6.90;;;5.28;;
70157;SDS011;57524;48.312;7.938;2022-07-29T03:01:38;7.82;;;5.30;;
70157;SDS011;57524;48.312;7.938;2022-07-29T03:04:09;8.80;;;5.85;;
70157;SDS011;57524;48.312;7.938;2022-07-29T03:06:39;8.15;;;5.70;;
70157;SDS011;57524;48.312;7.938;2022-07-29T03:09:07;8.45;;;5.70;;
70157;SDS011;57524;48.312;7.938;2022-07-29T03:11:36;8.20;;;5.25;;
70157;SDS011;57524;48.312;7.938;2022-07-29T03:14:04;8.48;;;5.40;;
70157;SDS011;57524;48.312;7.938;2022-07-29T03:16:31;7.93;;;5.72;;
70157;SDS011;57524;48.312;7.938;2022-07-29T03:19:01;7.43;;;5.68;;
70157;SDS011;57524;48.312;7.938;2022-07-29T03:21:30;8.80;;;5.88;;
70157;SDS011;57524;48.312;7.938;2022-07-29T03:23:57;8.82;;;5.78;;
70157;SDS011;57524;48.312;7.938;2022-07-29T03:26:23;9.00;;;5.80;;
70157;SDS011;57524;48.312;7.938;2022-07-29T03:28:50;7.57;;;5.63;;
70157;SDS011;57524;48.312;7.938;2022-07-29T03:31:17;8.38;;;5.93;;
70157;SDS011;57524;48.312;7.938;2022-07-29T03:33:43;8.07;;;6.20;;
70157;SDS011;57524;48.312;7.938;2022-07-29T03:36:10;7.80;;;5.72;;
70157;SDS011;57524;48.312;7.938;2022-07-29T03:38:38;7.85;;;5.90;;
70157;SDS011;57524;48.312;7.938;2022-07-29T03:41:09;8.05;;;5.68;;
70157;SDS011;57524;48.312;7.938;2022-07-29T03:43:38;8.48;;;5.60;;
70157;SDS011;57524;48.312;7.938;2022-07-29T03:46:07;8.48;;;5.68;;
70157;SDS011;57524;48.312;7.938;2022-07-29T03:48:36;8.15;;;5.70;;
70157;SDS011;57524;48.312;7.938;2022-07-29T03:51:06;7.70;;;5.90;;
70157;SDS011;57524;48.312;7.938;2022-07-29T03:53:32;9.57;;;5.80;;
70157;SDS011;57524;48.312;7.938;2022-07-29T03:56:03;8.70;;;5.82;;
70157;SDS011;57524;48.312;7.938;2022-07-29T03:58:32;7.78;;;6.03;;
70157;SDS011;57524;48.312;7.938;2022-07-29T04:01:00;8.23;;;5.90;;
70157;SDS011;57524;48.312;7.938;2022-07-29T04:03:26;8.75;;;6.05;;
70157;SDS011;57524;48.312;7.938;2022-07-29T04:06:00;8.70;;;6.15;;
70157;SDS011;57524;48.312;7.938;2022-07-29T04:08:28;8.95;;;5.90;;
70157;SDS011;57524;48.312;7.938;2022-07-29T04:10:55;8.82;;;5.97;;
70157;SDS011;57524;48.312;7.938;2022-07-29T04:13:23;8.63;;;6.50;;
70157;SDS011;57524;48.312;7.938;2022-07-29T04:15:49;8.68;;;6.00;;
70157;SDS011;57524;48.312;7.938;2022-07-29T04:18:16;7.63;;;5.72;;
70157;SDS011;57524;48.312;7.938;2022-07-29T04:20:43;9.07;;;5.78;;
70157;SDS011;57524;48.312;7.938;2022-07-29T04:23:09;9.18;;;5.97;;
70157;SDS011;57524;48.312;7.938;2022-07-29T04:25:37;9.05;;;6.22;;
70157;SDS011;57524;48.312;7.938;2022-07-29T04:28:04;9.73;;;6.28;;
70157;SDS011;57524;48.312;7.938;2022-07-29T04:30:32;8.98;;;6.05;;
70157;SDS011;57524;48.312;7.938;2022-07-29T04:33:00;8.10;;;5.88;;
70157;SDS011;57524;48.312;7.938;2022-07-29T04:35:27;8.60;;;6.05;;
70157;SDS011;57524;48.312;7.938;2022-07-29T04:37:53;8.52;;;6.07;;
70157;SDS011;57524;48.312;7.938;2022-07-29T04:40:20;8.90;;;6.25;;
70157;SDS011;57524;48.312;7.938;2022-07-29T04:42:47;7.40;;;5.90;;
70157;SDS011;57524;48.312;7.938;2022-07-29T04:45:14;8.48;;;5.68;;
70157;SDS011;57524;48.312;7.938;2022-07-29T04:47:42;8.68;;;6.03;;
70157;SDS011;57524;48.312;7.938;2022-07-29T04:50:09;7.63;;;5.80;;
70157;SDS011;57524;48.312;7.938;2022-07-29T04:52:36;7.95;;;6.30;;
70157;SDS011;57524;48.312;7.938;2022-07-29T04:55:03;8.55;;;6.25;;
70157;SDS011;57524;48.312;7.938;2022-07-29T04:57:31;8.02;;;5.95;;
70157;SDS011;57524;48.312;7.938;2022-07-29T04:59:58;7.63;;;6.10;;
70157;SDS011;57524;48.312;7.938;2022-07-29T05:02:24;9.05;;;6.20;;
70157;SDS011;57524;48.312;7.938;2022-07-29T05:04:52;9.68;;;6.25;;
70157;SDS011;57524;48.312;7.938;2022-07-29T05:07:19;8.82;;;6.57;;
70157;SDS011;57524;48.312;7.938;2022-07-29T05:09:46;9.18;;;5.78;;
70157;SDS011;57524;48.312;7.938;2022-07-29T05:12:12;9.40;;;6.38;;
70157;SDS011;57524;48.312;7.938;2022-07-29T05:14:39;9.63;;;6.70;;
70157;SDS011;57524;48.312;7.938;2022-07-29T05:17:06;8.35;;;6.53;;
70157;SDS011;57524;48.312;7.938;2022-07-29T05:19:32;7.85;;;6.20;;
70157;SDS011;57524;48.312;7.938;2022-07-29T05:22:00;8.23;;;6.32;;
70157;SDS011;57524;48.312;7.938;2022-07-29T05:24:27;7.80;;;6.40;;
70157;SDS011;57524;48.312;7.938;2022-07-29T05:26:53;9.57;;;7.20;;
70157;SDS011;57524;48.312;7.938;2022-07-29T05:29:20;8.88;;;6.50;;
70157;SDS011;57524;48.312;7.938;2022-07-29T05:31:47;8.15;;;6.20;;
70157;SDS011;57524;48.312;7.938;2022-07-29T05:34:13;8.57;;;6.57;;
70157;SDS011;57524;48.312;7.938;2022-07-29T05:36:40;8.10;;;6.43;;
70157;SDS011;57524;48.312;7.938;2022-07-29T05:39:08;8.10;;;6.07;;
70157;SDS011;57524;48.312;7.938;2022-07-29T05:41:35;10.23;;;6.72;;
70157;SDS011;57524;48.312;7.938;2022-07-29T05:44:01;9.57;;;6.60;;
70157;SDS011;57524;48.312;7.938;2022-07-29T05:46:28;9.65;;;6.50;;
70157;SDS011;57524;48.312;7.938;2022-07-29T05:48:55;8.98;;;6.88;;
70157;SDS011;57524;48.312;7.938;2022-07-29T05:51:22;9.13;;;6.43;;
70157;SDS011;57524;48.312;7.938;2022-07-29T05:53:48;8.50;;;6.72;;
70157;SDS011;57524;48.312;7.938;2022-07-29T05:56:16;8.63;;;6.63;;
70157;SDS011;57524;48.312;7.938;2022-07-29T05:58:43;9.73;;;6.80;;
70157;SDS011;57524;48.312;7.938;2022-07-29T06:01:09;8.07;;;6.57;;
70157;SDS011;57524;48.312;7.938;2022-07-29T06:03:36;9.25;;;6.32;;
70157;SDS011;57524;48.312;7.938;2022-07-29T06:06:03;7.82;;;6.30;;
70157;SDS011;57524;48.312;7.938;2022-07-29T06:08:31;10.93;;;6.55;;
70157;SDS011;57524;48.312;7.938;2022-07-29T06:10:58;8.98;;;5.93;;
70157;SDS011;57524;48.312;7.938;2022-07-29T06:13:26;8.15;;;6.60;;
70157;SDS011;57524;48.312;7.938;2022-07-29T06:15:53;9.07;;;6.43;;
70157;SDS011;57524;48.312;7.938;2022-07-29T06:18:20;8.98;;;6.30;;
70157;SDS011;57524;48.312;7.938;2022-07-29T06:20:48;9.13;;;6.63;;
70157;SDS011;57524;48.312;7.938;2022-07-29T06:23:15;7.50;;;5.80;;
70157;SDS011;57524;48.312;7.938;2022-07-29T06:25:42;10.00;;;5.93;;
70157;SDS011;57524;48.312;7.938;2022-07-29T06:28:08;8.82;;;6.50;;
70157;SDS011;57524;48.312;7.938;2022-07-29T06:30:36;10.45;;;6.57;;
70157;SDS011;57524;48.312;7.938;2022-07-29T06:33:03;11.95;;;7.03;;
70157;SDS011;57524;48.312;7.938;2022-07-29T06:35:30;15.07;;;7.70;;
70157;SDS011;57524;48.312;7.938;2022-07-29T06:38:00;13.27;;;8.02;;
70157;SDS011;57524;48.312;7.938;2022-07-29T06:40:26;13.10;;;7.93;;
70157;SDS011;57524;48.312;7.938;2022-07-29T06:43:11;12.32;;;7.40;;
70157;SDS011;57524;48.312;7.938;2022-07-29T06:45:39;11.65;;;7.20;;
70157;SDS011;57524;48.312;7.938;2022-07-29T06:48:07;11.02;;;7.10;;
70157;SDS011;57524;48.312;7.938;2022-07-29T06:50:34;11.48;;;7.32;;
70157;SDS011;57524;48.312;7.938;2022-07-29T06:53:01;9.80;;;6.38;;
70157;SDS011;57524;48.312;7.938;2022-07-29T06:55:27;10.20;;;6.97;;
70157;SDS011;57524;48.312;7.938;2022-07-29T06:57:54;10.27;;;6.25;;
70157;SDS011;57524;48.312;7.938;2022-07-29T07:00:21;10.40;;;6.30;;
70157;SDS011;57524;48.312;7.938;2022-07-29T07:02:49;11.77;;;6.25;;
70157;SDS011;57524;48.312;7.938;2022-07-29T07:05:15;9.38;;;6.35;;
70157;SDS011;57524;48.312;7.938;2022-07-29T07:07:42;10.25;;;6.22;;
70157;SDS011;57524;48.312;7.938;2022-07-29T07:10:09;9.95;;;6.85;;
70157;SDS011;57524;48.312;7.938;2022-07-29T07:12:35;9.95;;;6.07;;
70157;SDS011;57524;48.312;7.938;2022-07-29T07:15:02;9.85;;;6.50;;
70157;SDS011;57524;48.312;7.938;2022-07-29T07:17:29;8.73;;;5.97;;
70157;SDS011;57524;48.312;7.938;2022-07-29T07:19:57;9.30;;;5.63;;
70157;SDS011;57524;48.312;7.938;2022-07-29T07:22:24;9.15;;;5.13;;
70157;SDS011;57524;48.312;7.938;2022-07-29T07:24:50;8.18;;;5.03;;
70157;SDS011;57524;48.312;7.938;2022-07-29T07:27:17;8.35;;;5.43;;
70157;SDS011;57524;48.312;7.938;2022-07-29T07:29:43;6.05;;;4.20;;
70157;SDS011;57524;48.312;7.938;2022-07-29T07:32:10;5.82;;;3.92;;
70157;SDS011;57524;48.312;7.938;2022-07-29T07:34:38;6.72;;;4.38;;
70157;SDS011;57524;48.312;7.938;2022-07-29T07:37:06;7.07;;;3.83;;
70157;SDS011;57524;48.312;7.938;2022-07-29T07:39:33;7.82;;;4.25;;
70157;SDS011;57524;48.312;7.938;2022-07-29T07:42:00;6.85;;;4.07;;
70157;SDS011;57524;48.312;7.938;2022-07-29T07:44:26;9.10;;;4.85;;
70157;SDS011;57524;48.312;7.938;2022-07-29T07:46:53;9.63;;;5.57;;
70157;SDS011;57524;48.312;7.938;2022-07-29T07:49:19;6.82;;;4.10;;
70157;SDS011;57524;48.312;7.938;2022-07-29T07:51:46;7.97;;;4.72;;
70157;SDS011;57524;48.312;7.938;2022-07-29T07:54:14;6.63;;;4.60;;
70157;SDS011;57524;48.312;7.938;2022-07-29T07:56:41;8.88;;;4.25;;
70157;SDS011;57524;48.312;7.938;2022-07-29T07:59:07;7.13;;;4.13;;
70157;SDS011;57524;48.312;7.938;2022-07-29T08:01:34;6.78;;;3.80;;
70157;SDS011;57524;48.312;7.938;2022-07-29T08:04:00;6.05;;;3.90;;
70157;SDS011;57524;48.312;7.938;2022-07-29T08:06:27;7.57;;;4.00;;
70157;SDS011;57524;48.312;7.938;2022-07-29T08:08:54;7.82;;;4.00;;
70157;SDS011;57524;48.312;7.938;2022-07-29T08:11:22;7.03;;;3.90;;
70157;SDS011;57524;48.312;7.938;2022-07-29T08:13:48;7.32;;;3.88;;
70157;SDS011;57524;48.312;7.938;2022-07-29T08:16:15;6.68;;;4.00;;
70157;SDS011;57524;48.312;7.938;2022-07-29T08:18:42;7.43;;;3.80;;
70157;SDS011;57524;48.312;7.938;2022-07-29T08:21:09;5.93;;;3.80;;
70157;SDS011;57524;48.312;7.938;2022-07-29T08:23:36;6.00;;;3.95;;
70157;SDS011;57524;48.312;7.938;2022-07-29T08:26:04;7.95;;;4.20;;
70157;SDS011;57524;48.312;7.938;2022-07-29T08:28:36;9.68;;;3.90;;
70157;SDS011;57524;48.312;7.938;2022-07-29T08:31:03;7.00;;;4.00;;
70157;SDS011;57524;48.312;7.938;2022-07-29T08:33:30;7.20;;;4.10;;
70157;SDS011;57524;48.312;7.938;2022-07-29T08:35:57;6.53;;;4.03;;
70157;SDS011;57524;48.312;7.938;2022-07-29T08:38:24;7.53;;;3.83;;
70157;SDS011;57524;48.312;7.938;2022-07-29T08:40:52;6.47;;;3.75;;
70157;SDS011;57524;48.312;7.938;2022-07-29T08:43:19;7.07;;;3.77;;
70157;SDS011;57524;48.312;7.938;2022-07-29T08:45:47;7.47;;;3.90;;
70157;SDS011;57524;48.312;7.938;2022-07-29T08:48:16;5.97;;;3.95;;
70157;SDS011;57524;48.312;7.938;2022-07-29T08:50:46;7.35;;;3.97;;
70157;SDS011;57524;48.312;7.938;2022-07-29T08:53:14;6.75;;;3.90;;
70157;SDS011;57524;48.312;7.938;2022-07-29T08:55:43;8.23;;;3.83;;
70157;SDS011;57524;48.312;7.938;2022-07-29T08:58:10;8.63;;;3.83;;
70157;SDS011;57524;48.312;7.938;2022-07-29T09:00:41;7.15;;;3.75;;
70157;SDS011;57524;48.312;7.938;2022-07-29T09:03:10;5.38;;;3.45;;
70157;SDS011;57524;48.312;7.938;2022-07-29T09:05:41;5.97;;;3.55;;
70157;SDS011;57524;48.312;7.938;2022-07-29T09:08:08;5.97;;;3.63;;
70157;SDS011;57524;48.312;7.938;2022-07-29T09:10:36;7.35;;;3.97;;
70157;SDS011;57524;48.312;7.938;2022-07-29T09:13:02;7.53;;;4.10;;
70157;SDS011;57524;48.312;7.938;2022-07-29T09:15:30;5.75;;;4.00;;
70157;SDS011;57524;48.312;7.938;2022-07-29T09:17:56;7.05;;;4.18;;
70157;SDS011;57524;48.312;7.938;2022-07-29T09:20:26;6.77;;;3.90;;
70157;SDS011;57524;48.312;7.938;2022-07-29T09:23:13;6.28;;;3.67;;
70157;SDS011;57524;48.312;7.938;2022-07-29T09:25:40;5.95;;;4.10;;
70157;SDS011;57524;48.312;7.938;2022-07-29T09:28:08;5.97;;;4.10;;
70157;SDS011;57524;48.312;7.938;2022-07-29T09:30:36;5.70;;;3.90;;
70157;SDS011;57524;48.312;7.938;2022-07-29T09:33:15;7.22;;;4.00;;
70157;SDS011;57524;48.312;7.938;2022-07-29T09:35:44;8.90;;;4.45;;
70157;SDS011;57524;48.312;7.938;2022-07-29T09:38:11;7.20;;;4.30;;
70157;SDS011;57524;48.312;7.938;2022-07-29T09:40:39;7.78;;;4.22;;
70157;SDS011;57524;48.312;7.938;2022-07-29T09:43:09;7.55;;;3.83;;
70157;SDS011;57524;48.312;7.938;2022-07-29T09:45:37;7.00;;;4.20;;
70157;SDS011;57524;48.312;7.938;2022-07-29T09:48:12;7.55;;;4.40;;
70157;SDS011;57524;48.312;7.938;2022-07-29T09:50:41;6.32;;;4.35;;
70157;SDS011;57524;48.312;7.938;2022-07-29T09:53:10;7.25;;;4.07;;
70157;SDS011;57524;48.312;7.938;2022-07-29T09:55:47;9.00;;;4.38;;
70157;SDS011;57524;48.312;7.938;2022-07-29T09:58:15;6.67;;;3.90;;
70157;SDS011;57524;48.312;7.938;2022-07-29T10:00:43;8.23;;;4.10;;
70157;SDS011;57524;48.312;7.938;2022-07-29T10:03:10;10.75;;;4.40;;
70157;SDS011;57524;48.312;7.938;2022-07-29T10:05:37;10.38;;;4.50;;
70157;SDS011;57524;48.312;7.938;2022-07-29T10:08:05;7.38;;;3.90;;
70157;SDS011;57524;48.312;7.938;2022-07-29T10:10:37;6.10;;;4.33;;
70157;SDS011;57524;48.312;7.938;2022-07-29T10:13:05;7.82;;;3.92;;
70157;SDS011;57524;48.312;7.938;2022-07-29T10:15:34;6.25;;;3.58;;
70157;SDS011;57524;48.312;7.938;2022-07-29T10:18:04;7.50;;;4.25;;
70157;SDS011;57524;48.312;7.938;2022-07-29T10:20:32;8.98;;;4.95;;
70157;SDS011;57524;48.312;7.938;2022-07-29T10:22:59;6.93;;;4.37;;
70157;SDS011;57524;48.312;7.938;2022-07-29T10:25:26;7.28;;;4.10;;
70157;SDS011;57524;48.312;7.938;2022-07-29T10:27:54;6.03;;;4.07;;
70157;SDS011;57524;48.312;7.938;2022-07-29T10:30:21;7.15;;;4.35;;
70157;SDS011;57524;48.312;7.938;2022-07-29T10:33:08;6.50;;;4.13;;
70157;SDS011;57524;48.312;7.938;2022-07-29T10:35:46;9.70;;;4.10;;
70157;SDS011;57524;48.312;7.938;2022-07-29T10:38:26;11.00;;;4.25;;
70157;SDS011;57524;48.312;7.938;2022-07-29T10:41:02;9.23;;;4.28;;
70157;SDS011;57524;48.312;7.938;2022-07-29T10:43:55;7.07;;;4.03;;
70157;SDS011;57524;48.312;7.938;2022-07-29T10:46:25;7.45;;;4.57;;
70157;SDS011;57524;48.312;7.938;2022-07-29T10:49:09;9.13;;;4.53;;
70157;SDS011;57524;48.312;7.938;2022-07-29T10:51:56;7.60;;;4.43;;
70157;SDS011;57524;48.312;7.938;2022-07-29T10:54:41;7.97;;;4.20;;
70157;SDS011;57524;48.312;7.938;2022-07-29T10:57:14;6.65;;;4.10;;
70157;SDS011;57524;48.312;7.938;2022-07-29T10:59:47;7.95;;;4.28;;
70157;SDS011;57524;48.312;7.938;2022-07-29T11:05:08;6.65;;;3.90;;
70157;SDS011;57524;48.312;7.938;2022-07-29T11:07:36;7.82;;;3.88;;
70157;SDS011;57524;48.312;7.938;2022-07-29T11:10:19;7.07;;;4.07;;
70157;SDS011;57524;48.312;7.938;2022-07-29T11:12:48;7.28;;;3.92;;
70157;SDS011;57524;48.312;7.938;2022-07-29T11:15:18;6.63;;;4.00;;
70157;SDS011;57524;48.312;7.938;2022-07-29T11:18:05;10.02;;;4.30;;
70157;SDS011;57524;48.312;7.938;2022-07-29T11:20:34;6.22;;;3.67;;
70157;SDS011;57524;48.312;7.938;2022-07-29T11:23:17;6.25;;;3.70;;
70157;SDS011;57524;48.312;7.938;2022-07-29T11:25:45;7.45;;;4.07;;
70157;SDS011;57524;48.312;7.938;2022-07-29T11:28:13;7.20;;;4.07;;
70157;SDS011;57524;48.312;7.938;2022-07-29T11:30:49;8.30;;;4.20;;
70157;SDS011;57524;48.312;7.938;2022-07-29T11:33:26;8.63;;;4.05;;
70157;SDS011;57524;48.312;7.938;2022-07-29T11:36:07;7.43;;;3.95;;
70157;SDS011;57524;48.312;7.938;2022-07-29T11:38:35;5.55;;;3.95;;
70157;SDS011;57524;48.312;7.938;2022-07-29T11:43:54;6.68;;;3.88;;
70157;SDS011;57524;48.312;7.938;2022-07-29T11:46:44;6.28;;;3.80;;
70157;SDS011;57524;48.312;7.938;2022-07-29T11:49:12;5.80;;;3.90;;
70157;SDS011;57524;48.312;7.938;2022-07-29T11:51:39;6.10;;;3.45;;
70157;SDS011;57524;48.312;7.938;2022-07-29T11:54:07;5.90;;;3.90;;
70157;SDS011;57524;48.312;7.938;2022-07-29T11:56:40;7.10;;;3.83;;
70157;SDS011;57524;48.312;7.938;2022-07-29T11:59:46;7.13;;;3.60;;
70157;SDS011;57524;48.312;7.938;2022-07-29T12:02:15;6.38;;;3.90;;
70157;SDS011;57524;48.312;7.938;2022-07-29T12:04:48;6.25;;;3.53;;
70157;SDS011;57524;48.312;7.938;2022-07-29T12:07:14;7.20;;;3.90;;
70157;SDS011;57524;48.312;7.938;2022-07-29T12:09:48;6.68;;;3.95;;
70157;SDS011;57524;48.312;7.938;2022-07-29T12:12:16;5.47;;;3.55;;
70157;SDS011;57524;48.312;7.938;2022-07-29T12:14:43;7.13;;;4.00;;
70157;SDS011;57524;48.312;7.938;2022-07-29T12:17:25;5.43;;;3.30;;
70157;SDS011;57524;48.312;7.938;2022-07-29T12:19:53;5.57;;;3.70;;
70157;SDS011;57524;48.312;7.938;2022-07-29T12:22:26;7.38;;;3.53;;
70157;SDS011;57524;48.312;7.938;2022-07-29T12:24:53;5.63;;;3.50;;
70157;SDS011;57524;48.312;7.938;2022-07-29T12:27:20;5.97;;;3.65;;
70157;SDS011;57524;48.312;7.938;2022-07-29T12:29:54;6.65;;;3.80;;
70157;SDS011;57524;48.312;7.938;2022-07-29T12:32:22;9.13;;;3.90;;
70157;SDS011;57524;48.312;7.938;2022-07-29T12:34:51;6.25;;;3.80;;
70157;SDS011;57524;48.312;7.938;2022-07-29T12:37:17;9.43;;;3.67;;
70157;SDS011;57524;48.312;7.938;2022-07-29T12:39:44;6.07;;;3.80;;
70157;SDS011;57524;48.312;7.938;2022-07-29T12:42:11;6.07;;;3.90;;
70157;SDS011;57524;48.312;7.938;2022-07-29T12:44:45;7.03;;;3.40;;
70157;SDS011;57524;48.312;7.938;2022-07-29T12:47:13;8.00;;;3.58;;
70157;SDS011;57524;48.312;7.938;2022-07-29T12:49:40;7.28;;;3.45;;
70157;SDS011;57524;48.312;7.938;2022-07-29T12:54:54;8.13;;;4.03;;
70157;SDS011;57524;48.312;7.938;2022-07-29T12:57:21;7.00;;;3.80;;
70157;SDS011;57524;48.312;7.938;2022-07-29T12:59:58;5.63;;;3.83;;
70157;SDS011;57524;48.312;7.938;2022-07-29T13:02:26;6.57;;;3.90;;
70157;SDS011;57524;48.312;7.938;2022-07-29T13:04:55;6.68;;;4.00;;
70157;SDS011;57524;48.312;7.938;2022-07-29T13:07:24;5.35;;;3.40;;
70157;SDS011;57524;48.312;7.938;2022-07-29T13:09:53;6.73;;;3.83;;
70157;SDS011;57524;48.312;7.938;2022-07-29T13:12:20;7.65;;;3.53;;
70157;SDS011;57524;48.312;7.938;2022-07-29T13:14:48;7.82;;;3.92;;
70157;SDS011;57524;48.312;7.938;2022-07-29T13:17:16;6.82;;;3.97;;
70157;SDS011;57524;48.312;7.938;2022-07-29T13:19:45;6.35;;;3.70;;
70157;SDS011;57524;48.312;7.938;2022-07-29T13:22:14;7.13;;;3.40;;
70157;SDS011;57524;48.312;7.938;2022-07-29T13:24:46;6.60;;;3.70;;
70157;SDS011;57524;48.312;7.938;2022-07-29T13:27:16;6.18;;;3.83;;
70157;SDS011;57524;48.312;7.938;2022-07-29T13:29:43;6.50;;;3.67;;
70157;SDS011;57524;48.312;7.938;2022-07-29T13:32:10;6.72;;;3.70;;
70157;SDS011;57524;48.312;7.938;2022-07-29T13:34:37;7.30;;;3.60;;
70157;SDS011;57524;48.312;7.938;2022-07-29T13:37:04;7.80;;;3.70;;
70157;SDS011;57524;48.312;7.938;2022-07-29T13:39:31;6.88;;;3.40;;
70157;SDS011;57524;48.312;7.938;2022-07-29T13:41:58;6.05;;;3.60;;
70157;SDS011;57524;48.312;7.938;2022-07-29T13:44:26;5.97;;;3.85;;
70157;SDS011;57524;48.312;7.938;2022-07-29T13:46:52;7.27;;;3.60;;
70157;SDS011;57524;48.312;7.938;2022-07-29T13:49:19;6.97;;;4.00;;
70157;SDS011;57524;48.312;7.938;2022-07-29T13:51:45;6.60;;;3.92;;
70157;SDS011;57524;48.312;7.938;2022-07-29T13:54:12;9.35;;;4.18;;
70157;SDS011;57524;48.312;7.938;2022-07-29T13:56:39;6.93;;;4.15;;
70157;SDS011;57524;48.312;7.938;2022-07-29T13:59:05;7.23;;;4.00;;
70157;SDS011;57524;48.312;7.938;2022-07-29T14:01:34;8.52;;;4.10;;
70157;SDS011;57524;48.312;7.938;2022-07-29T14:04:00;7.07;;;4.40;;
70157;SDS011;57524;48.312;7.938;2022-07-29T14:06:27;6.55;;;4.20;;
70157;SDS011;57524;48.312;7.938;2022-07-29T14:08:54;6.50;;;4.07;;
70157;SDS011;57524;48.312;7.938;2022-07-29T14:11:21;7.00;;;4.00;;
70157;SDS011;57524;48.312;7.938;2022-07-29T14:13:51;8.60;;;4.40;;
70157;SDS011;57524;48.312;7.938;2022-07-29T14:16:18;6.45;;;4.13;;
70157;SDS011;57524;48.312;7.938;2022-07-29T14:18:46;6.53;;;3.90;;
70157;SDS011;57524;48.312;7.938;2022-07-29T14:21:12;8.05;;;4.20;;
70157;SDS011;57524;48.312;7.938;2022-07-29T14:23:39;6.57;;;4.00;;
70157;SDS011;57524;48.312;7.938;2022-07-29T14:26:06;8.00;;;4.20;;
70157;SDS011;57524;48.312;7.938;2022-07-29T14:28:32;6.97;;;4.10;;
70157;SDS011;57524;48.312;7.938;2022-07-29T14:30:59;7.80;;;4.15;;
70157;SDS011;57524;48.312;7.938;2022-07-29T14:33:26;6.55;;;4.00;;
70157;SDS011;57524;48.312;7.938;2022-07-29T14:35:53;7.30;;;4.00;;
70157;SDS011;57524;48.312;7.938;2022-07-29T14:38:20;7.00;;;4.07;;
70157;SDS011;57524;48.312;7.938;2022-07-29T14:40:47;6.25;;;3.67;;
70157;SDS011;57524;48.312;7.938;2022-07-29T14:43:13;7.80;;;3.80;;
70157;SDS011;57524;48.312;7.938;2022-07-29T14:45:40;6.63;;;3.60;;
70157;SDS011;57524;48.312;7.938;2022-07-29T14:48:07;6.20;;;3.67;;
70157;SDS011;57524;48.312;7.938;2022-07-29T14:50:33;5.65;;;3.65;;
70157;SDS011;57524;48.312;7.938;2022-07-29T14:53:02;6.30;;;3.30;;
70157;SDS011;57524;48.312;7.938;2022-07-29T14:55:29;8.13;;;3.55;;
70157;SDS011;57524;48.312;7.938;2022-07-29T14:57:56;5.85;;;3.60;;
70157;SDS011;57524;48.312;7.938;2022-07-29T15:00:24;7.33;;;3.70;;
70157;SDS011;57524;48.312;7.938;2022-07-29T15:02:50;4.93;;;3.38;;
70157;SDS011;57524;48.312;7.938;2022-07-29T15:05:17;7.07;;;3.47;;
70157;SDS011;57524;48.312;7.938;2022-07-29T15:07:44;6.55;;;3.47;;
70157;SDS011;57524;48.312;7.938;2022-07-29T15:10:12;7.78;;;3.90;;